Time;durP1;ratioP1;P1;durP2;ratioP2;P2;SDS_P1;SDS_P2;PMS_P1;PMS_P2;Temp;Humidity;BMP_temperature;BMP_pressure;BME280_temperature;BME280_humidity;BME280_pressure;Samples;Min_cycle;Max_cycle;Signal;HPM_P1;HPM_P2
2022/06/07 00:03:22;;;;;;;;;;;;;;;12.56;77.01758;101253.9;;;;-81
2022/06/07 00:08:23;;;;;;;;;;;;;;;12.55;77.07031;101244.5;;;;-81
2022/06/07 00:08:45;;;;;;;11.3;4.1;;;;;;;;;;;;;-80
2022/06/07 00:13:22;;;;;;;;;;;;;;;12.53;76.97949;101242.7;;;;-80
2022/06/07 00:18:22;;;;;;;;;;;;;;;12.5;77.24023;101243.1;;;;-82
2022/06/07 00:23:22;;;;;;;;;;;;;;;12.48;77.26855;101239.8;;;;-82
2022/06/07 00:28:23;;;;;;;;;;;;;;;12.47;77.55762;101236;;;;-81
2022/06/07 00:33:24;;;;;;;;;;;;;;;12.46;77.74512;101231.3;;;;-82
2022/06/07 00:38:22;;;;;;;;;;;;;;;12.47;77.64746;101224;;;;-81
2022/06/07 00:38:47;;;;;;;10.5;4.9;;;;;;;;;;;;;-80
2022/06/07 00:43:24;;;;;;;;;;;;;;;12.45;77.78711;101224.2;;;;-81
2022/06/07 00:48:23;;;;;;;;;;;;;;;12.44;77.81836;101219.7;;;;-80
2022/06/07 00:53:30;;;;;;;;;;;;;;;12.46;77.90137;101218.5;;;;-82
2022/06/07 00:58:25;;;;;;;;;;;;;;;12.5;77.79688;101220.3;;;;-80
2022/06/07 01:03:28;;;;;;;;;;;;;;;12.51;77.67578;101213;;;;-81
2022/06/07 01:13:25;;;;;;;;;;;;;;;12.53;77.79004;101210.5;;;;-82
2022/06/07 01:18:22;;;;;;;;;;;;;;;12.54;77.84766;101210.2;;;;-82
2022/06/07 01:23:24;;;;;;;;;;;;;;;12.55;77.82715;101208;;;;-81
2022/06/07 01:28:26;;;;;;;;;;;;;;;12.56;77.75098;101205.8;;;;-81
2022/06/07 01:33:22;;;;;;;;;;;;;;;12.57;77.85352;101206.4;;;;-80
2022/06/07 01:38:22;;;;;;;;;;;;;;;12.58;77.98926;101203.9;;;;-81
2022/06/07 01:41:53;;;;;;;11.5;6.4;;;;;;;;;;;;;-81
2022/06/07 01:43:22;;;;;;;;;;;;;;;12.6;77.83691;101204.6;;;;-82
2022/06/07 01:48:22;;;;;;;;;;;;;;;12.59;77.91309;101199;;;;-80
2022/06/07 01:53:22;;;;;;;;;;;;;;;12.61;77.62695;101200.7;;;;-82
2022/06/07 01:58:22;;;;;;;;;;;;;;;12.62;77.43945;101188.2;;;;-81
2022/06/07 02:03:23;;;;;;;;;;;;;;;12.61;77.78125;101188.5;;;;-81
2022/06/07 02:08:22;;;;;;;;;;;;;;;12.61;78.00684;101181.6;;;;-80
2022/06/07 02:08:51;;;;;;;14.6;7.2;;;;;;;;;;;;;-80
2022/06/07 02:13:24;;;;;;;;;;;;;;;12.61;77.68262;101186.9;;;;-82
2022/06/07 02:18:22;;;;;;;;;;;;;;;12.62;77.65234;101178.9;;;;-81
2022/06/07 02:23:22;;;;;;;;;;;;;;;12.62;77.46094;101169.2;;;;-81
2022/06/07 02:28:22;;;;;;;;;;;;;;;12.6;77.3916;101174.3;;;;-82
2022/06/07 02:33:22;;;;;;;;;;;;;;;12.59;77.13184;101172.9;;;;-82
2022/06/07 02:38:22;;;;;;;;;;;;;;;12.58;77.1748;101171.2;;;;-82
2022/06/07 02:38:52;;;;;;;13.5;6.7;;;;;;;;;;;;;-81
2022/06/07 02:43:23;;;;;;;;;;;;;;;12.54;77.1582;101170.6;;;;-81
2022/06/07 02:48:22;;;;;;;;;;;;;;;12.54;77.61426;101170.8;;;;-81
2022/06/07 02:53:22;;;;;;;;;;;;;;;12.54;77.48145;101170.7;;;;-80
2022/06/07 02:58:22;;;;;;;;;;;;;;;12.54;77.41504;101168.8;;;;-82
2022/06/07 03:03:22;;;;;;;;;;;;;;;12.56;77.43945;101161.5;;;;-81
2022/06/07 03:08:22;;;;;;;;;;;;;;;12.56;77.49609;101158.2;;;;-82
2022/06/07 03:08:54;;;;;;;14.6;7.1;;;;;;;;;;;;;-85
2022/06/07 03:13:22;;;;;;;;;;;;;;;12.58;77.53125;101158.4;;;;-83
2022/06/07 03:18:22;;;;;;;;;;;;;;;12.56;77.46094;101158.4;;;;-82
2022/06/07 03:23:22;;;;;;;;;;;;;;;12.57;77.49805;101158.3;;;;-81
2022/06/07 03:28:22;;;;;;;;;;;;;;;12.58;77.39746;101156.3;;;;-81
2022/06/07 03:49:24;;;;;;;;;;;;;;;12.89;76.57227;101174;;;;-78
2022/06/07 03:53:54;;;;;;;;;;;;;;;12.66;76.94629;101169.3;;;;-79
2022/06/07 03:58:56;;;;;;;;;;;;;;;12.67;76.75879;101166.6;;;;-79
2022/06/07 04:03:58;;;;;;;;;;;;;;;12.7;76.9082;101174.3;;;;-80
2022/06/07 04:08:54;;;;;;;;;;;;;;;12.71;76.6875;101182.3;;;;-80
2022/06/07 04:09:06;;;;;;;12.9;6.5;;;;;;;;;;;;;-80
2022/06/07 04:13:55;;;;;;;;;;;;;;;12.73;76.72363;101183.9;;;;-82
2022/06/07 04:18:55;;;;;;;;;;;;;;;12.76;76.27344;101184.8;;;;-79
2022/06/07 04:23:54;;;;;;;;;;;;;;;12.8;76.37988;101184.8;;;;-81
2022/06/07 04:28:54;;;;;;;;;;;;;;;12.84;76.26367;101191.2;;;;-81
2022/06/07 04:34:02;;;;;;;;;;;;;;;12.86;76.21289;101190.7;;;;-80
2022/06/07 04:38:57;;;;;;;;;;;;;;;12.88;76.22754;101193.5;;;;-82
2022/06/07 04:39:09;;;;;;;11.9;6.4;;;;;;;;;;;;;-82
2022/06/07 04:44:00;;;;;;;;;;;;;;;12.91;75.93164;101196.7;;;;-79
2022/06/07 04:48:55;;;;;;;;;;;;;;;12.94;75.79297;101195.6;;;;-80
2022/06/07 04:53:54;;;;;;;;;;;;;;;12.98;75.63184;101195.8;;;;-80
2022/06/07 04:58:54;;;;;;;;;;;;;;;13.02;75.49316;101198;;;;-80
2022/06/07 05:03:56;;;;;;;;;;;;;;;13.06;75.29883;101192.7;;;;-81
2022/06/07 05:08:58;;;;;;;;;;;;;;;13.1;75.30664;101198.5;;;;-80
2022/06/07 05:09:11;;;;;;;16.3;6.9;;;;;;;;;;;;;-80
2022/06/07 05:13:55;;;;;;;;;;;;;;;13.16;75.26074;101202;;;;-80
2022/06/07 05:18:55;;;;;;;;;;;;;;;13.24;74.90625;101199.4;;;;-80
2022/06/07 05:23:55;;;;;;;;;;;;;;;13.4;74.81055;101202.7;;;;-81
2022/06/07 05:28:54;;;;;;;;;;;;;;;13.63;74.56055;101201;;;;-82
2022/06/07 05:33:54;;;;;;;;;;;;;;;13.96;74.12402;101204.7;;;;-80
2022/06/07 05:38:54;;;;;;;;;;;;;;;14.19;73.30273;101206.6;;;;-81
2022/06/07 05:39:06;;;;;;;12.5;6.7;;;;;;;;;;;;;-81
2022/06/07 05:43:55;;;;;;;;;;;;;;;14.23;72.7832;101203.6;;;;-78
2022/06/07 05:48:54;;;;;;;;;;;;;;;14.18;72.66309;101208.2;;;;-81
2022/06/07 05:53:59;;;;;;;;;;;;;;;14.1;72.69531;101211.4;;;;-79
2022/06/07 05:58:54;;;;;;;;;;;;;;;14.05;72.80957;101211.7;;;;-80
2022/06/07 06:03:54;;;;;;;;;;;;;;;14.04;72.85254;101214.5;;;;-79
2022/06/07 06:13:55;;;;;;;;;;;;;;;14.02;72.91699;101215.3;;;;-82
2022/06/07 06:18:55;;;;;;;;;;;;;;;14.02;72.93945;101224.2;;;;-80
2022/06/07 06:23:54;;;;;;;;;;;;;;;14.03;72.9834;101224.7;;;;-79
2022/06/07 06:28:54;;;;;;;;;;;;;;;14.04;72.98828;101218.3;;;;-80
2022/06/07 06:33:55;;;;;;;;;;;;;;;14.08;72.84766;101222.3;;;;-77
2022/06/07 06:38:54;;;;;;;;;;;;;;;14.15;72.71387;101229.4;;;;-81
2022/06/07 06:39:06;;;;;;;14.5;6.7;;;;;;;;;;;;;-81
2022/06/07 06:43:56;;;;;;;;;;;;;;;14.21;72.83691;101227.8;;;;-81
2022/06/07 06:48:54;;;;;;;;;;;;;;;14.3;72.92871;101228.6;;;;-81
2022/06/07 06:53:55;;;;;;;;;;;;;;;14.39;72.6875;101222.2;;;;-80
2022/06/07 06:58:55;;;;;;;;;;;;;;;14.5;72.52637;101223.9;;;;-80
2022/06/07 07:03:55;;;;;;;;;;;;;;;14.59;72.51953;101230.7;;;;-81
2022/06/07 07:09:00;;;;;;;;;;;;;;;14.68;72.15234;101241.3;;;;-81
2022/06/07 07:09:12;;;;;;;15.8;7.5;;;;;;;;;;;;;-81
2022/06/07 07:13:55;;;;;;;;;;;;;;;14.75;71.77148;101247.1;;;;-79
2022/06/07 07:18:54;;;;;;;;;;;;;;;14.81;71.625;101252.5;;;;-79
2022/06/07 07:23:58;;;;;;;;;;;;;;;14.88;71.24316;101253;;;;-81
2022/06/07 07:29:00;;;;;;;;;;;;;;;14.95;70.76172;101256.2;;;;-80
2022/06/07 07:33:54;;;;;;;;;;;;;;;15.04;70.63086;101257.7;;;;-80
2022/06/07 07:39:01;;;;;;;;;;;;;;;15.19;69.95996;101257.5;;;;-81
2022/06/07 07:39:13;;;;;;;11.7;5.3;;;;;;;;;;;;;-81
2022/06/07 07:43:56;;;;;;;;;;;;;;;15.3;69.28223;101264.1;;;;-80
2022/06/07 07:48:59;;;;;;;;;;;;;;;15.37;68.87695;101263.1;;;;-80
2022/06/07 07:54:02;;;;;;;;;;;;;;;15.43;68.73926;101258.2;;;;-81
2022/06/07 07:59:00;;;;;;;;;;;;;;;15.48;68.64648;101264.9;;;;-80
2022/06/07 08:03:58;;;;;;;;;;;;;;;15.51;68.36035;101265;;;;-80
2022/06/07 08:08:56;;;;;;;;;;;;;;;15.49;68.16602;101274.5;;;;-81
2022/06/07 08:09:16;;;;;;;10.1;4.4;;;;;;;;;;;;;-80
2022/06/07 08:13:55;;;;;;;;;;;;;;;15.49;68.06445;101273;;;;-81
2022/06/07 08:18:55;;;;;;;;;;;;;;;15.47;67.95996;101277.6;;;;-82
2022/06/07 08:23:54;;;;;;;;;;;;;;;15.49;67.7168;101279;;;;-81
2022/06/07 08:28:54;;;;;;;;;;;;;;;15.55;67.47852;101275.7;;;;-82
2022/06/07 08:39:04;;;;;;;;;;;;;;;15.74;66.86719;101288.1;;;;-83
2022/06/07 08:39:36;;;;;;;10.7;3.7;;;;;;;;;;;;;-83
2022/06/07 08:44:03;;;;;;;;;;;;;;;15.85;66.63574;101291.2;;;;-82
2022/06/07 08:49:03;;;;;;;;;;;;;;;15.98;66.19434;101288;;;;-80
2022/06/07 08:53:56;;;;;;;;;;;;;;;16.08;65.82813;101294.9;;;;-80
2022/06/07 08:59:00;;;;;;;;;;;;;;;16.23;65.4668;101299.8;;;;-79
2022/06/07 09:04:02;;;;;;;;;;;;;;;16.41;65.15527;101292.7;;;;-81
2022/06/07 09:08:59;;;;;;;;;;;;;;;16.68;64.75488;101293.5;;;;-81
2022/06/07 09:09:14;;;;;;;9.2;3.3;;;;;;;;;;;;;-80
2022/06/07 09:14:16;;;;;;;;;;;;;;;16.95;63.78906;101292.5;;;;-80
2022/06/07 09:18:59;;;;;;;;;;;;;;;17.27;63.33984;101303.4;;;;-81
2022/06/07 09:23:57;;;;;;;;;;;;;;;17.66;62.43457;101296.4;;;;-81
2022/06/07 09:29:05;;;;;;;;;;;;;;;18.12;61.69531;101294.5;;;;-81
2022/06/07 09:34:10;;;;;;;;;;;;;;;18.71;60.54004;101289.6;;;;-81
2022/06/07 09:38:58;;;;;;;;;;;;;;;19.28;59.22168;101293.6;;;;-80
2022/06/07 09:39:19;;;;;;;9.8;3.2;;;;;;;;;;;;;-80
2022/06/07 09:43:54;;;;;;;;;;;;;;;19.72;58.92871;101298.7;;;;-82
2022/06/07 09:49:06;;;;;;;;;;;;;;;20.08;57.80273;101297.9;;;;-81
2022/06/07 09:54:03;;;;;;;;;;;;;;;20.3;56.93262;101296.8;;;;-81
2022/06/07 09:59:06;;;;;;;;;;;;;;;20.42;56.46973;101303.2;;;;-82
2022/06/07 10:04:03;;;;;;;;;;;;;;;20.48;56.36328;101304.2;;;;-81
2022/06/07 10:09:03;;;;;;;;;;;;;;;20.46;55.84668;101311.1;;;;-82
2022/06/07 10:09:39;;;;;;;6;2.7;;;;;;;;;;;;;-80
2022/06/07 10:14:06;;;;;;;;;;;;;;;20.37;55.80273;101308.7;;;;-80
2022/06/07 10:19:38;;;;;;;;;;;;;;;20.63;55.45703;101308.4;;;;-82
2022/06/07 10:23:07;;;;;;;;;;;;;;;20.3;56.04395;101310.4;;;;-82
2022/06/07 10:28:03;;;;;;;;;;;;;;;20.27;56.45117;101311.7;;;;-82
2022/06/07 10:33:03;;;;;;;;;;;;;;;20.3;56.56836;101316.3;;;;-84
2022/06/07 10:38:06;;;;;;;;;;;;;;;20.38;56.39551;101314.1;;;;-83
2022/06/07 10:39:28;;;;;;;6.9;3.4;;;;;;;;;;;;;-83
2022/06/07 10:43:00;;;;;;;;;;;;;;;20.53;56.2998;101307.2;;;;-81
2022/06/07 10:48:01;;;;;;;;;;;;;;;20.68;55.91992;101303.4;;;;-83
2022/06/07 10:53:01;;;;;;;;;;;;;;;20.77;55.76172;101305.7;;;;-85
2022/06/07 10:58:02;;;;;;;;;;;;;;;20.81;55.58301;101315;;;;-84
2022/06/07 11:03:02;;;;;;;;;;;;;;;20.9;55.94824;101311.9;;;;-84
2022/06/07 11:09:24;;;;;;;10.2;4.4;;;;;;;;;;;;;-84
2022/06/07 11:13:02;;;;;;;;;;;;;;;21.26;55.66309;101304;;;;-83
2022/06/07 11:18:02;;;;;;;;;;;;;;;21.46;55.38965;101303.6;;;;-81
2022/06/07 11:23:10;;;;;;;;;;;;;;;21.66;55.37988;101300;;;;-82
2022/06/07 11:28:06;;;;;;;;;;;;;;;21.92;55.29785;101298.4;;;;-82
2022/06/07 11:32:59;;;;;;;;;;;;;;;22.19;55.28613;101297.5;;;;-83
2022/06/07 11:37:59;;;;;;;;;;;;;;;22.45;55.21484;101301.8;;;;-83
2022/06/07 11:39:32;;;;;;;7;3.9;;;;;;;;;;;;;-83
2022/06/07 11:42:58;;;;;;;;;;;;;;;22.71;54.97266;101303.4;;;;-84
2022/06/07 11:48:07;;;;;;;;;;;;;;;22.99;55.11035;101298.6;;;;-82
2022/06/07 11:53:04;;;;;;;;;;;;;;;23.25;55.29004;101299.3;;;;-84
2022/06/07 11:58:05;;;;;;;;;;;;;;;23.49;54.76855;101295.9;;;;-82
2022/06/07 12:03:08;;;;;;;;;;;;;;;23.76;54.35352;101301.8;;;;-83
2022/06/07 12:08:04;;;;;;;;;;;;;;;23.99;53.59961;101299.2;;;;-84
2022/06/07 12:09:32;;;;;;;6.5;3.5;;;;;;;;;;;;;-84
2022/06/07 12:12:59;;;;;;;;;;;;;;;24.16;53.44727;101301;;;;-84
2022/06/07 12:18:10;;;;;;;;;;;;;;;24.31;52.93555;101302.9;;;;-83
2022/06/07 12:23:02;;;;;;;;;;;;;;;24.44;52.92871;101302.9;;;;-80
2022/06/07 12:28:00;;;;;;;;;;;;;;;24.7;53.00586;101304.6;;;;-83
2022/06/07 12:33:02;;;;;;;;;;;;;;;24.86;52.14844;101301.4;;;;-83
2022/06/07 12:38:08;;;;;;;;;;;;;;;25.07;51.80469;101304.8;;;;-83
2022/06/07 12:39:37;;;;;;;5.7;3.2;;;;;;;;;;;;;-84
2022/06/07 12:43:09;;;;;;;;;;;;;;;25.27;51.83789;101307.4;;;;-85
2022/06/07 12:48:11;;;;;;;;;;;;;;;25.43;51.87988;101310.5;;;;-83
2022/06/07 12:53:00;;;;;;;;;;;;;;;25.57;50.96094;101301.4;;;;-83
2022/06/07 12:58:00;;;;;;;;;;;;;;;25.79;51.05371;101304.7;;;;-84
2022/06/07 13:02:59;;;;;;;;;;;;;;;25.96;50.31055;101303.7;;;;-85
2022/06/07 13:08:00;;;;;;;;;;;;;;;26.09;50.54492;101309.7;;;;-86
2022/06/07 13:09:37;;;;;;;4.9;3.2;;;;;;;;;;;;;-84
2022/06/07 13:13:02;;;;;;;;;;;;;;;26.24;49.72852;101300.4;;;;-83
2022/06/07 13:18:13;;;;;;;;;;;;;;;26.39;49.43262;101298.7;;;;-86
2022/06/07 13:22:57;;;;;;;;;;;;;;;26.47;49.39551;101308.5;;;;-84
2022/06/07 13:28:09;;;;;;;;;;;;;;;26.49;49.32813;101296.8;;;;-84
2022/06/07 13:33:08;;;;;;;;;;;;;;;26.59;48.72559;101300.8;;;;-84
2022/06/07 13:38:08;;;;;;;;;;;;;;;26.76;48.46484;101301.2;;;;-85
2022/06/07 13:39:42;;;;;;;5.7;3.5;;;;;;;;;;;;;-86
2022/06/07 13:43:09;;;;;;;;;;;;;;;26.84;48.40332;101299.5;;;;-84
2022/06/07 13:48:08;;;;;;;;;;;;;;;26.96;47.58203;101295.4;;;;-85
2022/06/07 13:58:00;;;;;;;;;;;;;;;27.07;47.7207;101296;;;;-84
2022/06/07 14:03:05;;;;;;;;;;;;;;;27.12;47.32031;101282.7;;;;-85
2022/06/07 14:07:57;;;;;;;;;;;;;;;27.11;47.28418;101291.7;;;;-85
2022/06/07 14:09:50;;;;;;;6.4;3.8;;;;;;;;;;;;;-84
2022/06/07 14:12:58;;;;;;;;;;;;;;;26.98;47.09766;101296.8;;;;-83
2022/06/07 14:18:02;;;;;;;;;;;;;;;26.89;47.09961;101289;;;;-82
2022/06/07 14:23:02;;;;;;;;;;;;;;;26.85;46.75977;101293;;;;-84
2022/06/07 14:28:00;;;;;;;;;;;;;;;26.84;46.50195;101291.8;;;;-84
2022/06/07 14:33:00;;;;;;;;;;;;;;;26.88;46.62207;101292.8;;;;-84
2022/06/07 14:38:00;;;;;;;;;;;;;;;26.92;46.8125;101287.3;;;;-84
2022/06/07 14:39:51;;;;;;;8.5;3.7;;;;;;;;;;;;;-83
2022/06/07 14:42:57;;;;;;;;;;;;;;;27.03;46.56836;101291.7;;;;-83
2022/06/07 14:48:03;;;;;;;;;;;;;;;27.09;46.37793;101289.3;;;;-84
2022/06/07 14:52:59;;;;;;;;;;;;;;;27.16;46.83789;101288.7;;;;-84
2022/06/07 14:58:00;;;;;;;;;;;;;;;27.29;45.71191;101290;;;;-82
2022/06/07 15:03:05;;;;;;;;;;;;;;;27.28;46.18848;101291.7;;;;-82
2022/06/07 15:08:02;;;;;;;;;;;;;;;27.26;46.45215;101289.6;;;;-83
2022/06/07 15:09:53;;;;;;;6.3;3;;;;;;;;;;;;;-82
2022/06/07 15:13:06;;;;;;;;;;;;;;;27.27;45.88574;101288.4;;;;-84
2022/06/07 15:17:58;;;;;;;;;;;;;;;27.23;45.56738;101297.4;;;;-85
2022/06/07 15:23:01;;;;;;;;;;;;;;;27.12;45.5332;101290.5;;;;-87
2022/06/07 15:27:57;;;;;;;;;;;;;;;27.03;45.28027;101292.4;;;;-83
2022/06/07 15:33:06;;;;;;;;;;;;;;;26.97;45.93652;101292.5;;;;-84
2022/06/07 15:39:56;;;;;;;5.3;3.1;;;;;;;;;;;;;-84
2022/06/07 15:43:01;;;;;;;;;;;;;;;26.85;45.88965;101290.1;;;;-84
2022/06/07 15:48:07;;;;;;;;;;;;;;;26.74;45.57715;101285.2;;;;-84
2022/06/07 15:53:11;;;;;;;;;;;;;;;26.67;45.12891;101290.1;;;;-84
2022/06/07 16:03:04;;;;;;;;;;;;;;;26.35;45.54883;101279.7;;;;-86
2022/06/07 16:08:06;;;;;;;;;;;;;;;26.24;45.49121;101283;;;;-85
2022/06/07 16:10:05;;;;;;;5.2;2.8;;;;;;;;;;;;;-85
2022/06/07 16:13:13;;;;;;;;;;;;;;;26.11;45.67383;101283.8;;;;-87
2022/06/07 16:18:07;;;;;;;;;;;;;;;25.94;46.14453;101279.3;;;;-85
2022/06/07 16:23:18;;;;;;;;;;;;;;;25.83;46.04004;101280.6;;;;-86
2022/06/07 16:38:03;;;;;;;;;;;;;;;25.44;46.92578;101277.5;;;;-84
2022/06/07 16:40:05;;;;;;;5.1;2.4;;;;;;;;;;;;;-85
2022/06/07 16:44:00;;;;;;;;;;;;;;;25.3;46.86426;101274.7;;;;-83
2022/06/07 16:47:57;;;;;;;;;;;;;;;25.17;47.32422;101281.9;;;;-84
2022/06/07 16:52:59;;;;;;;;;;;;;;;25;47.52539;101280.2;;;;-82
2022/06/07 16:58:02;;;;;;;;;;;;;;;24.85;47.71777;101279.8;;;;-82
2022/06/07 17:03:01;;;;;;;;;;;;;;;24.71;48.09473;101280.4;;;;-85
2022/06/07 17:08:01;;;;;;;;;;;;;;;24.57;48.17285;101275.4;;;;-86
2022/06/07 17:10:16;;;;;;;4.8;2.7;;;;;;;;;;;;;-86
2022/06/07 17:13:11;;;;;;;;;;;;;;;24.4;48.61621;101263.4;;;;-84
2022/06/07 17:17:58;;;;;;;;;;;;;;;24.24;48.63184;101261.3;;;;-83
2022/06/07 17:22:58;;;;;;;;;;;;;;;24.06;48.54395;101264.5;;;;-83
2022/06/07 17:27:59;;;;;;;;;;;;;;;23.85;48.5332;101256.1;;;;-85
2022/06/07 17:32:58;;;;;;;;;;;;;;;23.64;48.84375;101258;;;;-82
2022/06/07 17:38:05;;;;;;;;;;;;;;;23.44;48.81055;101259.1;;;;-84
2022/06/07 17:40:22;;;;;;;5.8;3.2;;;;;;;;;;;;;-86
2022/06/07 17:46:39;;;;;;;;;;;;;;;23.14;49.59375;101258;;;;-84
2022/06/07 17:51:35;;;;;;;;;;;;;;;22.95;49.53809;101256.9;;;;-84
2022/06/07 17:56:38;;;;;;;;;;;;;;;22.78;49.85352;101251.6;;;;-84
2022/06/07 18:01:51;;;;;;;;;;;;;;;22.61;49.90234;101254.7;;;;-87
2022/06/07 18:06:41;;;;;;;;;;;;;;;22.44;50.02148;101259.5;;;;-83
2022/06/07 18:14:31;;;;;;;;;;;;;;;22.18;50.21094;101252.1;;;;-82
2022/06/07 18:19:19;;;;;;;;;;;;;;;22.03;50.2959;101251;;;;-80
2022/06/07 18:24:17;;;;;;;;;;;;;;;21.89;50.46387;101261.1;;;;-82
2022/06/07 18:29:26;;;;;;;;;;;;;;;21.76;50.61035;101258.7;;;;-81
2022/06/07 18:34:15;;;;;;;;;;;;;;;21.61;50.71973;101248;;;;-81
2022/06/07 18:39:20;;;;;;;;;;;;;;;21.49;50.7627;101253.8;;;;-81
2022/06/07 18:40:18;;;;;;;5.1;3.2;;;;;;;;;;;;;-81
2022/06/07 18:44:21;;;;;;;;;;;;;;;21.36;50.74805;101249.9;;;;-79
2022/06/07 18:49:15;;;;;;;;;;;;;;;21.23;50.70898;101254.8;;;;-81
2022/06/07 18:54:24;;;;;;;;;;;;;;;21.06;50.82715;101260.2;;;;-81
2022/06/07 18:59:31;;;;;;;;;;;;;;;20.84;50.93945;101256.3;;;;-83
2022/06/07 19:04:22;;;;;;;;;;;;;;;20.58;51.10352;101252.8;;;;-82
2022/06/07 19:09:15;;;;;;;;;;;;;;;20.32;51.22266;101257.9;;;;-80
2022/06/07 19:10:32;;;;;;;6.6;3.5;;;;;;;;;;;;;-81
2022/06/07 19:14:15;;;;;;;;;;;;;;;20.05;51.13379;101258.9;;;;-80
2022/06/07 19:19:24;;;;;;;;;;;;;;;19.79;51.15039;101261.4;;;;-81
2022/06/07 19:24:12;;;;;;;;;;;;;;;19.53;51.1543;101259.1;;;;-80
2022/06/07 19:29:12;;;;;;;;;;;;;;;19.26;51.11133;101256.1;;;;-80
2022/06/07 19:34:20;;;;;;;;;;;;;;;18.98;51.2168;101253.9;;;;-82
2022/06/07 19:39:12;;;;;;;;;;;;;;;18.72;51.49414;101260;;;;-80
2022/06/07 19:40:37;;;;;;;6.1;4;;;;;;;;;;;;;-82
2022/06/07 19:44:18;;;;;;;;;;;;;;;18.46;51.88379;101257.9;;;;-80
2022/06/07 19:49:21;;;;;;;;;;;;;;;18.19;52.01074;101262.1;;;;-82
2022/06/07 19:54:30;;;;;;;;;;;;;;;17.95;52.57324;101270.3;;;;-83
2022/06/07 19:59:28;;;;;;;;;;;;;;;17.71;52.81641;101268.5;;;;-80
2022/06/07 20:04:39;;;;;;;;;;;;;;;17.49;53.15137;101262.8;;;;-82
2022/06/07 20:09:14;;;;;;;;;;;;;;;17.27;53.69336;101264.7;;;;-83
2022/06/07 20:10:32;;;;;;;7.6;4.2;;;;;;;;;;;;;-79
2022/06/07 20:14:19;;;;;;;;;;;;;;;17.04;54.07129;101258.1;;;;-83
2022/06/07 20:19:36;;;;;;;;;;;;;;;16.84;54.43262;101259.4;;;;-83
2022/06/07 20:24:38;;;;;;;;;;;;;;;16.99;54.42871;101257.3;;;;-82
2022/06/07 20:28:32;;;;;;;;;;;;;;;16.49;55.10254;101251.2;;;;-83
2022/06/07 20:33:24;;;;;;;;;;;;;;;16.32;55.32813;101252.5;;;;-82
2022/06/07 20:38:26;;;;;;;;;;;;;;;16.12;55.8125;101254.8;;;;-83
2022/06/07 20:40:30;;;;;;;7;4.1;;;;;;;;;;;;;-82
2022/06/07 20:43:24;;;;;;;;;;;;;;;15.94;56.11621;101243.5;;;;-81
2022/06/07 20:48:24;;;;;;;;;;;;;;;15.77;56.3418;101241.2;;;;-82
2022/06/07 20:53:32;;;;;;;;;;;;;;;15.62;56.78516;101235.8;;;;-86
2022/06/07 20:58:33;;;;;;;;;;;;;;;15.47;57.16113;101233.6;;;;-81
2022/06/07 21:03:24;;;;;;;;;;;;;;;15.33;57.45703;101227.1;;;;-83
2022/06/07 21:08:25;;;;;;;;;;;;;;;15.19;57.46289;101221.7;;;;-83
2022/06/07 21:10:30;;;;;;;8.3;4.3;;;;;;;;;;;;;-84
2022/06/07 21:13:24;;;;;;;;;;;;;;;15.07;57.86328;101217.6;;;;-84
2022/06/07 21:18:24;;;;;;;;;;;;;;;14.96;57.96094;101214.8;;;;-83
2022/06/07 21:23:31;;;;;;;;;;;;;;;14.82;57.88574;101211.9;;;;-84
2022/06/07 21:28:24;;;;;;;;;;;;;;;14.69;58.08398;101204.5;;;;-83
2022/06/07 21:33:24;;;;;;;;;;;;;;;14.58;58.31641;101203.3;;;;-84
2022/06/07 21:38:23;;;;;;;;;;;;;;;14.49;58.55176;101202.2;;;;-82
2022/06/07 21:41:05;;;;;;;6.9;4;;;;;;;;;;;;;-84
2022/06/07 21:43:28;;;;;;;;;;;;;;;14.39;58.4375;101195.3;;;;-84
2022/06/07 21:48:27;;;;;;;;;;;;;;;14.31;58.60645;101191.5;;;;-82
2022/06/07 21:53:30;;;;;;;;;;;;;;;14.24;58.74219;101185.3;;;;-83
2022/06/07 21:58:29;;;;;;;;;;;;;;;14.19;59.24219;101184.3;;;;-82
2022/06/07 22:03:26;;;;;;;;;;;;;;;14.11;59.14063;101177.4;;;;-82
2022/06/07 22:08:24;;;;;;;;;;;;;;;14.08;59.40527;101178.6;;;;-81
2022/06/07 22:10:39;;;;;;;7.5;4.1;;;;;;;;;;;;;-82
2022/06/07 22:13:25;;;;;;;;;;;;;;;14.04;59.46973;101168.7;;;;-84
2022/06/07 22:18:23;;;;;;;;;;;;;;;13.97;59.43555;101159.7;;;;-83
2022/06/07 22:23:24;;;;;;;;;;;;;;;13.94;59.49902;101157.5;;;;-82
2022/06/07 22:29:37;;;;;;;;;;;;;;;13.88;59.70508;101154;;;;-82
2022/06/07 22:33:24;;;;;;;;;;;;;;;13.84;59.67773;101152.5;;;;-83
2022/06/07 22:38:24;;;;;;;;;;;;;;;13.76;59.76758;101147.8;;;;-82
2022/06/07 22:40:35;;;;;;;7.2;4.3;;;;;;;;;;;;;-82
2022/06/07 22:43:23;;;;;;;;;;;;;;;13.71;60.1416;101147.8;;;;-83
2022/06/07 22:48:23;;;;;;;;;;;;;;;13.69;60.01563;101141.8;;;;-83
2022/06/07 22:53:26;;;;;;;;;;;;;;;13.62;59.78125;101141.1;;;;-83
2022/06/07 22:58:26;;;;;;;;;;;;;;;13.57;60.38086;101136.2;;;;-83
2022/06/07 23:03:28;;;;;;;;;;;;;;;13.5;60.7168;101128.8;;;;-81
2022/06/07 23:08:29;;;;;;;;;;;;;;;13.45;60.62207;101124.8;;;;-83
2022/06/07 23:10:41;;;;;;;8.7;5;;;;;;;;;;;;;-83
2022/06/07 23:17:16;;;;;;;;;;;;;;;13.43;60.80957;101117;;;;-83
2022/06/07 23:18:25;;;;;;;;;;;;;;;13.42;61.2666;101110.3;;;;-83
2022/06/07 23:23:25;;;;;;;;;;;;;;;13.38;61.37305;101105.1;;;;-83
2022/06/07 23:28:25;;;;;;;;;;;;;;;13.37;60.93555;101105.1;;;;-83
2022/06/07 23:33:24;;;;;;;;;;;;;;;13.37;61.48438;101100.6;;;;-84
2022/06/07 23:38:26;;;;;;;;;;;;;;;13.38;61.40527;101096;;;;-83
2022/06/07 23:40:39;;;;;;;11;5.8;;;;;;;;;;;;;-83
2022/06/07 23:43:23;;;;;;;;;;;;;;;13.39;61.75586;101090.4;;;;-82
2022/06/07 23:48:24;;;;;;;;;;;;;;;13.42;61.92773;101087;;;;-82
2022/06/07 23:53:27;;;;;;;;;;;;;;;13.45;62.69238;101071.9;;;;-83
2022/06/07 23:58:26;;;;;;;;;;;;;;;13.49;62.45117;101068.3;;;;-83
